Time;durP1;ratioP1;P1;durP2;ratioP2;P2;SDS_P1;SDS_P2;PMS_P1;PMS_P2;Temp;Humidity;BMP_temperature;BMP_pressure;BME280_temperature;BME280_humidity;BME280_pressure;Samples;Min_cycle;Max_cycle;Signal;HPM_P1;HPM_P2
2022/08/04 00:00:16;;;;;;;3.37;3.10;;;20.20;99.90;19.60;100631;;;;573961;245;24063;-84
2022/08/04 00:03:01;;;;;;;2.83;2.63;;;20.20;99.90;19.70;100630;;;;575413;246;23165;-86
2022/08/04 00:05:30;;;;;;;3.00;2.30;;;20.30;99.90;19.80;100633;;;;573889;247;23103;-84
2022/08/04 00:08:05;;;;;;;6.17;3.43;;;20.30;99.90;19.80;100632;;;;573509;247;24084;-84
2022/08/04 00:10:36;;;;;;;3.97;3.07;;;20.30;99.90;19.80;100631;;;;586072;242;23084;-85
2022/08/04 00:13:00;;;;;;;5.20;2.87;;;20.30;99.90;19.80;100637;;;;584620;241;23150;-84
2022/08/04 00:15:31;;;;;;;4.27;2.57;;;20.30;99.90;19.80;100635;;;;577407;244;25119;-85
2022/08/04 00:18:05;;;;;;;6.33;2.90;;;20.30;99.90;19.70;100641;;;;577933;245;23077;-84
2022/08/04 00:20:33;;;;;;;2.90;2.70;;;20.30;99.90;19.70;100634;;;;586454;245;24060;-85
2022/08/04 00:23:04;;;;;;;7.97;5.03;;;20.20;99.90;19.70;100638;;;;578321;246;24070;-84
2022/08/04 00:25:30;;;;;;;2.90;2.70;;;20.20;99.90;19.70;100637;;;;580985;246;24087;-84
2022/08/04 00:27:58;;;;;;;10.47;3.13;;;20.20;99.90;19.60;100630;;;;585196;242;23249;-83
2022/08/04 00:30:26;;;;;;;6.47;2.70;;;20.10;99.90;19.60;100631;;;;583128;242;24064;-84
2022/08/04 00:32:58;;;;;;;3.73;3.23;;;20.10;99.90;19.50;100627;;;;585485;242;24068;-84
2022/08/04 00:35:23;;;;;;;4.30;3.13;;;20.10;99.90;19.50;100628;;;;571852;245;24156;-84
2022/08/04 00:37:54;;;;;;;4.43;3.00;;;20.00;99.90;19.50;100625;;;;586611;245;24102;-83
2022/08/04 00:40:28;;;;;;;4.00;2.87;;;20.00;99.90;19.40;100633;;;;573125;247;23112;-84
2022/08/04 00:43:45;;;;;;;6.50;2.90;;;20.00;99.90;19.40;100631;;;;593853;241;24091;-85
2022/08/04 00:46:46;;;;;;;2.97;2.77;;;19.90;99.90;19.40;100626;;;;573966;247;24083;-86
2022/08/04 00:49:38;;;;;;;4.10;3.80;;;19.90;99.90;19.40;100631;;;;577758;247;24093;-84
2022/08/04 00:52:18;;;;;;;4.10;3.00;;;19.90;99.90;19.40;100625;;;;573745;246;23150;-86
2022/08/04 00:55:22;;;;;;;3.73;2.90;;;19.90;99.90;19.40;100619;;;;577292;246;24129;-85
2022/08/04 00:58:03;;;;;;;3.13;2.93;;;20.00;99.90;19.50;100621;;;;572636;247;24113;-85
2022/08/04 01:00:40;;;;;;;3.60;2.90;;;20.00;99.90;19.50;100622;;;;582380;246;23120;-85
2022/08/04 01:03:19;;;;;;;3.40;3.10;;;20.00;99.90;19.50;100615;;;;577443;246;24091;-86
2022/08/04 01:06:11;;;;;;;5.30;3.00;;;20.00;99.90;19.50;100617;;;;584958;242;24068;-86
2022/08/04 01:09:00;;;;;;;4.80;3.30;;;20.00;99.90;19.60;100621;;;;593784;239;24076;-86
2022/08/04 01:12:08;;;;;;;7.17;2.77;;;20.10;99.90;19.60;100619;;;;584544;242;24064;-84
2022/08/04 01:15:07;;;;;;;3.30;3.00;;;20.10;99.90;19.70;100622;;;;586218;242;26268;-85
2022/08/04 01:17:35;;;;;;;2.97;2.63;;;20.20;99.90;19.70;100620;;;;594735;241;24124;-86
2022/08/04 01:20:07;;;;;;;5.57;2.70;;;20.20;99.90;19.70;100626;;;;574660;247;24147;-84
2022/08/04 01:22:35;;;;;;;3.13;2.80;;;20.20;99.90;19.60;100626;;;;583520;245;23185;-86
2022/08/04 01:25:45;;;;;;;5.70;3.10;;;20.20;99.90;19.60;100624;;;;583203;242;24085;-86
2022/08/04 01:28:34;;;;;;;2.77;2.57;;;20.20;99.90;19.60;100630;;;;583624;246;24080;-85
2022/08/04 01:31:08;;;;;;;4.57;2.60;;;20.20;99.90;19.60;100633;;;;571208;247;24213;-84
2022/08/04 01:33:37;;;;;;;4.43;2.73;;;20.20;99.90;19.60;100630;;;;589060;241;24065;-84
2022/08/04 01:36:09;;;;;;;3.87;2.97;;;20.20;99.90;19.70;100626;;;;584979;242;24078;-85
2022/08/04 01:38:40;;;;;;;2.43;2.23;;;20.20;99.90;19.70;100621;;;;585068;242;24052;-84
2022/08/04 01:41:07;;;;;;;6.57;2.93;;;20.20;99.90;19.70;100620;;;;585407;242;24086;-86
2022/08/04 01:43:36;;;;;;;3.03;2.80;;;20.20;99.90;19.70;100617;;;;585128;242;24054;-85
2022/08/04 01:46:04;;;;;;;3.47;3.17;;;20.20;99.90;19.70;100621;;;;582161;242;24121;-84
2022/08/04 01:48:38;;;;;;;5.40;3.30;;;20.20;99.90;19.70;100626;;;;571768;247;24101;-85
2022/08/04 01:51:04;;;;;;;3.53;2.70;;;20.20;99.90;19.70;100620;;;;572572;247;24146;-85
2022/08/04 01:53:34;;;;;;;3.27;3.07;;;20.30;99.90;19.80;100619;;;;583251;246;24076;-86
2022/08/04 01:56:03;;;;;;;3.27;2.97;;;20.30;99.90;19.80;100618;;;;584738;242;24099;-85
2022/08/04 01:58:34;;;;;;;6.87;3.23;;;20.30;99.90;19.80;100618;;;;593926;241;23113;-86
2022/08/04 02:01:02;;;;;;;6.33;3.87;;;20.30;99.90;19.80;100621;;;;573849;246;23123;-87
2022/08/04 02:03:30;;;;;;;3.33;3.00;;;20.30;99.90;19.70;100621;;;;584833;242;24078;-85
2022/08/04 02:06:25;;;;;;;2.97;2.77;;;20.30;99.90;19.70;100610;;;;584423;242;24090;-86
2022/08/04 02:09:26;;;;;;;3.20;2.83;;;20.20;99.90;19.60;100618;;;;574130;247;24155;-85
2022/08/04 02:12:09;;;;;;;7.10;2.77;;;20.20;99.90;19.60;100611;;;;585223;241;23078;-86
2022/08/04 02:14:40;;;;;;;3.70;3.43;;;20.10;99.90;19.60;100611;;;;584056;242;23130;-86
2022/08/04 02:17:27;;;;;;;3.10;2.90;;;20.10;99.90;19.50;100606;;;;573943;247;24113;-86
2022/08/04 02:20:07;;;;;;;4.97;3.23;;;20.00;99.90;19.50;100613;;;;593999;241;24051;-85
2022/08/04 02:22:47;;;;;;;3.60;3.07;;;20.00;99.90;19.50;100612;;;;593796;242;23095;-85
2022/08/04 02:25:20;;;;;;;4.20;3.10;;;20.00;99.90;19.40;100613;;;;577606;245;24049;-86
2022/08/04 02:28:09;;;;;;;3.73;3.10;;;19.90;99.90;19.40;100602;;;;570218;246;24114;-85
2022/08/04 02:30:55;;;;;;;3.40;3.10;;;19.90;99.90;19.30;100603;;;;578442;246;23100;-87
2022/08/04 02:33:38;;;;;;;6.20;3.40;;;19.90;99.90;19.30;100596;;;;578667;247;24063;-85
2022/08/04 02:36:07;;;;;;;5.57;3.10;;;19.80;99.90;19.30;100597;;;;590314;241;24054;-85
2022/08/04 02:38:49;;;;;;;4.13;3.30;;;19.80;99.90;19.30;100597;;;;585004;242;24062;-85
2022/08/04 02:41:18;;;;;;;5.67;3.53;;;19.80;99.90;19.20;100595;;;;570660;247;24075;-85
2022/08/04 02:43:46;;;;;;;4.00;3.67;;;19.70;99.90;19.20;100604;;;;581686;247;24102;-85
2022/08/04 02:46:17;;;;;;;4.35;3.95;;;20.80;99.90;19.10;100598;;;;579503;242;35183;-86
2022/08/04 02:48:51;;;;;;;4.00;3.70;;;19.70;99.90;19.10;100598;;;;585195;241;24062;-85
2022/08/04 02:51:18;;;;;;;4.13;3.57;;;19.60;99.90;19.10;100599;;;;574189;246;24058;-85
2022/08/04 02:53:48;;;;;;;5.03;3.60;;;19.60;99.90;19.00;100600;;;;583345;246;23197;-86
2022/08/04 02:56:20;;;;;;;3.70;3.40;;;19.50;99.90;19.00;100598;;;;590238;241;23095;-85
2022/08/04 02:58:53;;;;;;;4.10;3.70;;;19.50;99.90;19.00;100598;;;;574349;246;24143;-86
2022/08/04 03:01:25;;;;;;;5.50;3.60;;;19.50;99.90;19.00;100589;;;;584425;242;24115;-84
2022/08/04 03:04:19;;;;;;;6.57;3.60;;;19.40;99.90;18.90;100594;;;;573968;246;24103;-84
2022/08/04 03:07:27;;;;;;;3.73;3.27;;;19.40;99.90;18.90;100599;;;;573968;247;24085;-86
2022/08/04 03:10:27;;;;;;;7.53;3.30;;;19.40;99.90;18.90;100599;;;;578998;247;24121;-86
2022/08/04 03:13:04;;;;;;;5.67;3.40;;;19.40;99.90;18.90;100596;;;;573747;247;24086;-85
2022/08/04 03:15:56;;;;;;;4.23;3.93;;;19.40;99.90;18.90;100593;;;;573475;246;24090;-86
2022/08/04 03:19:03;;;;;;;5.63;3.73;;;19.40;99.90;18.90;100597;;;;572928;247;23118;-85
2022/08/04 03:21:40;;;;;;;6.37;3.67;;;19.40;99.90;18.90;100601;;;;589719;241;24090;-86
2022/08/04 03:24:57;;;;;;;4.53;4.07;;;19.40;99.90;18.90;100600;;;;589257;242;24051;-87
2022/08/04 03:27:56;;;;;;;4.77;3.80;;;19.40;99.90;18.90;100598;;;;573601;246;24077;-84
2022/08/04 03:30:36;;;;;;;6.57;3.60;;;19.40;99.90;18.90;100600;;;;582277;247;24142;-84
2022/08/04 03:33:25;;;;;;;4.87;4.27;;;19.40;99.90;18.90;100601;;;;573924;246;24103;-85
2022/08/04 03:36:23;;;;;;;5.77;4.07;;;19.40;99.90;19.00;100601;;;;595030;239;24050;-86
2022/08/04 03:38:51;;;;;;;11.10;4.60;;;19.50;99.90;19.00;100595;;;;583548;242;24077;-86
2022/08/04 03:42:02;;;;;;;4.23;3.90;;;19.50;99.90;19.00;100596;;;;573746;246;24082;-87
2022/08/04 03:44:45;;;;;;;4.57;4.10;;;19.50;99.90;19.00;100597;;;;579080;243;24065;-86
2022/08/04 03:47:41;;;;;;;6.20;3.83;;;19.60;99.90;19.10;100609;;;;577473;246;24094;-86
2022/08/04 03:50:45;;;;;;;4.77;4.37;;;19.60;99.90;19.10;100594;;;;582705;246;24275;-86
2022/08/04 03:53:37;;;;;;;4.77;3.90;;;19.60;99.90;19.20;100606;;;;574328;247;24131;-86
2022/08/04 03:56:36;;;;;;;5.50;4.03;;;19.70;99.90;19.30;100603;;;;573860;247;24074;-86
2022/08/04 03:59:09;;;;;;;4.83;3.70;;;19.70;99.90;19.40;100608;;;;572450;246;24107;-86
2022/08/04 04:01:40;;;;;;;8.23;4.30;;;19.80;99.90;19.50;100606;;;;592610;242;24062;-86
2022/08/04 04:04:48;;;;;;;5.00;4.50;;;20.00;99.90;19.60;100619;;;;572258;247;24152;-86
2022/08/04 04:07:40;;;;;;;5.47;4.47;;;20.20;99.90;19.70;100614;;;;574138;247;24090;-86
2022/08/04 04:10:08;;;;;;;6.17;4.47;;;20.20;99.90;20.30;100611;;;;577307;246;23111;-84
2022/08/04 04:12:48;;;;;;;4.93;4.43;;;20.70;99.90;21.30;100619;;;;573551;246;24092;-86
2022/08/04 04:16:05;;;;;;;4.83;4.43;;;21.70;99.90;22.50;100624;;;;589005;242;24132;-85
2022/08/04 04:18:58;;;;;;;6.77;4.67;;;22.80;99.90;23.90;100633;;;;573855;246;24080;-86
2022/08/04 04:21:44;;;;;;;6.80;4.17;;;25.60;99.90;25.10;100624;;;;576988;245;24165;-86
2022/08/04 04:24:20;;;;;;;5.33;4.10;;;25.50;99.90;26.20;100618;;;;572422;247;24167;-87
2022/08/04 04:26:51;;;;;;;4.80;4.30;;;26.70;99.90;27.00;100622;;;;572273;246;23143;-87
2022/08/04 04:29:43;;;;;;;6.50;5.23;;;27.70;97.10;27.70;100617;;;;578099;247;23093;-86
2022/08/04 04:32:57;;;;;;;7.93;4.63;;;28.40;94.40;28.40;100624;;;;578669;244;23147;-87
2022/08/04 04:35:56;;;;;;;6.83;4.70;;;29.20;91.60;28.90;100623;;;;584321;241;23078;-87
2022/08/04 04:38:51;;;;;;;8.15;5.25;;;29.80;87.70;28.80;100627;;;;583448;241;23065;-88
2022/08/04 04:41:32;;;;;;;10.43;5.53;;;29.80;85.10;29.00;100623;;;;574029;247;23107;-88
2022/08/04 04:44:36;;;;;;;6.40;5.30;;;29.90;83.10;29.80;100627;;;;573353;247;23117;-86
2022/08/04 04:47:04;;;;;;;12.45;5.65;;;30.60;80.80;30.80;100619;;;;585000;240;23081;-87
2022/08/04 04:49:34;;;;;;;11.52;5.37;;;31.60;76.30;31.70;100624;;;;574317;246;23152;-88
2022/08/04 04:52:23;;;;;;;5.60;5.03;;;32.50;72.30;32.30;100630;;;;574420;246;24168;-88
2022/08/04 04:55:04;;;;;;;6.15;5.12;;;33.20;69.40;33.20;100630;;;;574389;247;23131;-87
2022/08/04 04:57:32;;;;;;;7.37;5.82;;;34.00;66.60;33.80;100636;;;;589948;242;24087;-87
2022/08/04 04:59:59;;;;;;;8.30;5.53;;;34.80;63.90;34.50;100638;;;;582221;242;23071;-88
2022/08/04 05:02:37;;;;;;;10.63;6.10;;;35.50;60.70;35.10;100643;;;;582534;242;23102;-88
2022/08/04 05:05:37;;;;;;;10.23;7.00;;;36.00;59.30;35.90;100640;;;;569389;252;23105;-86
2022/08/04 05:08:29;;;;;;;10.65;7.68;;;36.80;57.50;36.90;100638;;;;582539;246;23100;-87
2022/08/04 05:11:18;;;;;;;19.30;6.47;;;37.70;54.70;37.20;100641;;;;574299;246;23091;-87
2022/08/04 05:13:49;;;;;;;15.32;6.70;;;38.20;53.80;37.90;100648;;;;572940;247;23120;-87
2022/08/04 05:16:41;;;;;;;10.30;5.75;;;38.80;51.80;38.30;100654;;;;581902;242;23061;-88
2022/08/04 05:19:27;;;;;;;10.80;6.12;;;39.30;51.20;38.90;100658;;;;593547;240;23079;-87
2022/08/04 05:22:22;;;;;;;12.73;6.35;;;39.80;49.90;39.40;100656;;;;590272;242;23082;-88
2022/08/04 05:24:50;;;;;;;12.18;6.18;;;40.30;49.00;40.10;100658;;;;584453;242;23081;-87
2022/08/04 05:27:22;;;;;;;6.78;5.37;;;41.50;47.80;40.80;100656;;;;582097;242;23093;-87
2022/08/04 05:29:53;;;;;;;6.18;5.53;;;41.40;47.70;41.30;100655;;;;581604;242;24147;-88
2022/08/04 05:32:20;;;;;;;10.35;5.53;;;42.00;46.40;41.60;100658;;;;581692;242;23094;-88
2022/08/04 05:34:54;;;;;;;13.45;5.70;;;42.40;46.40;42.20;100664;;;;581808;242;23110;-86
2022/08/04 05:37:22;;;;;;;11.40;5.30;;;42.80;45.60;42.70;100660;;;;570744;247;23118;-88
2022/08/04 05:39:50;;;;;;;16.33;5.45;;;43.40;44.80;43.20;100665;;;;572178;246;23132;-86
2022/08/04 05:42:21;;;;;;;8.20;5.43;;;43.80;44.60;43.60;100662;;;;582097;245;23131;-87
2022/08/04 05:44:46;;;;;;;14.70;4.80;;;44.30;43.40;43.80;100659;;;;584503;242;24106;-88
2022/08/04 05:47:16;;;;;;;12.23;5.15;;;44.50;42.70;43.80;100667;;;;584577;242;23104;-87
2022/08/04 05:49:42;;;;;;;16.00;5.25;;;44.70;42.50;44.00;100665;;;;580455;242;24105;-88
2022/08/04 05:52:10;;;;;;;15.57;5.28;;;44.80;42.20;44.30;100664;;;;585077;242;23062;-87
2022/08/04 05:54:37;;;;;;;6.43;5.40;;;45.00;41.70;44.60;100667;;;;584764;242;23064;-88
2022/08/04 05:57:05;;;;;;;18.75;5.65;;;45.20;41.30;44.80;100674;;;;573255;247;23104;-88
2022/08/04 05:59:33;;;;;;;13.52;5.25;;;45.40;41.40;45.20;100677;;;;575071;245;23097;-87
2022/08/04 06:02:04;;;;;;;21.55;6.53;;;45.80;40.70;45.60;100677;;;;594479;241;23065;-88
2022/08/04 06:04:38;;;;;;;12.43;5.12;;;46.10;40.80;46.00;100680;;;;594566;239;23116;-88
2022/08/04 06:07:09;;;;;;;12.93;6.07;;;46.70;39.50;46.20;100677;;;;586459;245;23079;-87
2022/08/04 06:09:41;;;;;;;12.43;5.35;;;46.70;39.50;45.90;100681;;;;582653;246;23155;-87
2022/08/04 06:12:05;;;;;;;14.00;5.90;;;46.60;39.40;45.60;100685;;;;582945;243;23228;-89
2022/08/04 06:14:38;;;;;;;14.60;5.45;;;46.50;39.50;45.70;100681;;;;581118;246;23166;-87
2022/08/04 06:17:07;;;;;;;13.60;5.45;;;46.70;40.10;46.30;100685;;;;574017;246;23141;-87
2022/08/04 06:19:38;;;;;;;15.95;5.12;;;47.20;40.50;46.80;100693;;;;582959;246;24117;-87
2022/08/04 06:22:08;;;;;;;22.83;6.18;;;47.20;39.70;47.10;100690;;;;580724;247;23089;-85
2022/08/04 06:24:35;;;;;;;24.92;6.10;;;47.50;38.50;47.30;100685;;;;573746;247;23089;-88
2022/08/04 06:27:03;;;;;;;23.65;6.35;;;47.80;38.20;47.50;100684;;;;585793;245;23136;-88
2022/08/04 06:29:37;;;;;;;16.85;5.80;;;48.00;38.10;47.50;100681;;;;585876;245;23067;-87
2022/08/04 06:32:01;;;;;;;10.32;5.05;;;48.00;37.90;47.90;100685;;;;571789;247;23134;-86
2022/08/04 06:34:31;;;;;;;16.05;5.32;;;48.30;38.00;48.00;100683;;;;581803;242;23075;-85
2022/08/04 06:37:03;;;;;;;13.82;5.60;;;48.50;37.20;47.80;100679;;;;572446;247;23132;-86
2022/08/04 06:39:27;;;;;;;11.75;5.28;;;48.50;37.10;47.70;100677;;;;584237;241;23074;-89
2022/08/04 06:41:56;;;;;;;15.75;6.00;;;48.60;38.00;48.30;100679;;;;593678;242;23144;-85
2022/08/04 06:44:24;;;;;;;36.30;5.68;;;49.00;36.80;48.70;100681;;;;580587;242;24201;-86
2022/08/04 06:46:53;;;;;;;15.20;5.00;;;49.40;36.40;49.10;100678;;;;581553;242;23106;-87
2022/08/04 06:49:22;;;;;;;11.52;5.10;;;49.70;36.20;49.50;100679;;;;577781;247;23187;-87
2022/08/04 06:51:55;;;;;;;9.77;5.32;;;49.90;35.80;49.70;100687;;;;584155;242;23065;-88
2022/08/04 06:54:20;;;;;;;18.00;5.18;;;49.90;35.80;50.10;100694;;;;577206;247;23104;-87
2022/08/04 06:56:54;;;;;;;10.65;5.35;;;50.40;35.40;50.00;100691;;;;594011;241;23082;-86
2022/08/04 06:59:21;;;;;;;28.33;6.35;;;50.40;35.40;50.40;100689;;;;584653;242;23066;-85
2022/08/04 07:01:51;;;;;;;17.42;6.00;;;51.40;34.60;51.20;100691;;;;594256;241;23068;-87
2022/08/04 07:04:17;;;;;;;12.25;5.87;;;51.80;34.10;51.40;100683;;;;584831;242;23086;-89
2022/08/04 07:06:45;;;;;;;9.55;5.00;;;51.70;34.00;51.50;100688;;;;584457;242;23054;-89
2022/08/04 07:09:13;;;;;;;17.17;5.82;;;51.90;33.50;51.50;100686;;;;594306;242;23072;-87
2022/08/04 07:11:41;;;;;;;10.70;5.32;;;51.90;33.50;51.50;100681;;;;585425;241;23114;-86
2022/08/04 07:14:09;;;;;;;14.02;5.05;;;51.90;33.40;51.60;100680;;;;586416;241;23125;-86
2022/08/04 07:16:43;;;;;;;13.27;5.22;;;52.20;33.80;52.00;100687;;;;575089;247;23112;-88
2022/08/04 07:19:11;;;;;;;11.27;5.00;;;52.20;33.80;51.80;100686;;;;575020;246;23158;-87
2022/08/04 07:21:39;;;;;;;15.35;5.57;;;52.30;32.60;50.90;100680;;;;584212;246;23097;-86
2022/08/04 07:24:11;;;;;;;18.12;6.25;;;51.60;33.10;50.50;100678;;;;575304;246;23088;-86
2022/08/04 07:26:37;;;;;;;15.77;5.65;;;51.00;33.50;50.40;100679;;;;587036;244;23088;-87
2022/08/04 07:29:08;;;;;;;14.55;5.35;;;51.00;33.50;50.70;100674;;;;582988;246;23126;-85
2022/08/04 07:31:33;;;;;;;13.32;5.05;;;51.00;33.70;51.00;100682;;;;584127;242;23073;-87
2022/08/04 07:34:07;;;;;;;5.05;4.55;;;51.50;33.20;51.20;100684;;;;584403;242;23066;-85
2022/08/04 07:36:41;;;;;;;5.60;5.07;;;51.80;33.10;51.50;100680;;;;589125;242;24110;-85
2022/08/04 07:39:01;;;;;;;9.90;5.25;;;51.70;33.00;51.30;100678;;;;569459;247;23112;-84
2022/08/04 07:41:34;;;;;;;10.40;5.10;;;51.80;32.80;51.30;100683;;;;572038;247;23112;-85
2022/08/04 07:43:58;;;;;;;6.95;4.62;;;51.70;32.70;51.40;100687;;;;578893;246;23119;-84
2022/08/04 07:46:26;;;;;;;5.65;5.00;;;51.80;32.70;51.30;100684;;;;578723;247;23142;-87
2022/08/04 07:48:58;;;;;;;6.20;4.57;;;51.50;32.70;51.10;100689;;;;577601;247;23107;-88
2022/08/04 07:51:29;;;;;;;6.87;4.97;;;51.60;33.00;51.20;100680;;;;579645;242;35107;-88
2022/08/04 07:53:54;;;;;;;11.82;4.50;;;51.80;32.50;51.20;100672;;;;585193;241;23087;-85
2022/08/04 07:56:23;;;;;;;7.43;4.87;;;51.70;32.40;51.20;100681;;;;590452;242;23146;-88
2022/08/04 07:59:04;;;;;;;;;;;;;;;;;;;;;
2022/08/04 08:01:21;;;;;;;4.15;3.67;;;51.80;32.60;52.00;100680;;;;573329;247;24141;-86
2022/08/04 08:03:52;;;;;;;7.40;4.10;;;52.10;32.50;52.60;100678;;;;581445;246;23127;-84
2022/08/04 08:06:17;;;;;;;3.95;3.72;;;52.70;31.30;53.20;100682;;;;589604;241;23128;-85
2022/08/04 08:08:50;;;;;;;6.45;4.30;;;53.30;31.00;53.10;100678;;;;571864;247;23132;-85
2022/08/04 08:11:18;;;;;;;7.22;4.15;;;53.50;30.40;53.20;100682;;;;585922;245;23083;-86
2022/08/04 08:13:46;;;;;;;6.95;4.00;;;53.90;30.30;53.80;100684;;;;573936;247;23104;-86
2022/08/04 08:16:15;;;;;;;4.95;4.07;;;54.40;30.30;54.30;100691;;;;572417;246;23113;-85
2022/08/04 08:18:44;;;;;;;4.82;4.43;;;55.10;30.30;54.90;100676;;;;572546;246;23123;-85
2022/08/04 08:21:08;;;;;;;8.18;4.60;;;55.00;30.20;55.40;100679;;;;572086;247;23119;-86
2022/08/04 08:23:36;;;;;;;4.47;4.22;;;55.50;30.00;55.70;100675;;;;582804;245;23133;-87
2022/08/04 08:26:04;;;;;;;8.57;4.32;;;56.00;29.50;56.00;100676;;;;585225;242;23083;-86
2022/08/04 08:28:36;;;;;;;4.62;4.20;;;56.20;29.50;56.50;100670;;;;581408;242;23194;-85
2022/08/04 08:31:04;;;;;;;3.83;3.62;;;56.60;29.00;56.60;100673;;;;580717;238;23083;-88
2022/08/04 08:33:37;;;;;;;4.05;3.75;;;56.90;28.70;57.10;100670;;;;584840;242;23075;-87
2022/08/04 08:36:04;;;;;;;6.65;4.60;;;57.40;28.80;57.30;100671;;;;585520;241;23134;-84
2022/08/04 08:38:54;;;;;;;4.78;4.37;;;57.70;28.60;57.40;100668;;;;572314;247;24205;-87
2022/08/04 08:42:02;;;;;;;10.93;4.43;;;57.80;28.70;57.50;100677;;;;574846;245;23109;-85
2022/08/04 08:45:20;;;;;;;5.75;4.22;;;58.00;28.40;57.60;100673;;;;582792;246;23100;-87
2022/08/04 08:48:31;;;;;;;8.45;4.60;;;58.10;28.70;57.80;100675;;;;585166;241;23107;-85
2022/08/04 08:51:30;;;;;;;11.70;4.50;;;58.30;27.90;58.00;100672;;;;584871;242;23145;-85
2022/08/04 08:54:37;;;;;;;5.18;4.40;;;58.30;28.10;58.40;100664;;;;581864;246;23179;-85
2022/08/04 08:57:26;;;;;;;12.32;5.15;;;58.70;27.90;57.10;100675;;;;581516;244;23103;-86
2022/08/04 09:00:06;;;;;;;5.87;4.72;;;58.40;27.50;56.10;100680;;;;573500;247;24142;-86
2022/08/04 09:03:02;;;;;;;4.75;4.45;;;57.30;28.50;56.70;100677;;;;569461;246;23106;-86
2022/08/04 09:05:54;;;;;;;6.10;4.10;;;57.60;27.80;56.90;100675;;;;573702;246;23060;-86
2022/08/04 09:08:53;;;;;;;6.97;4.20;;;57.70;27.90;55.70;100670;;;;582127;246;23092;-85
2022/08/04 09:11:28;;;;;;;8.48;3.92;;;57.10;27.80;54.40;100672;;;;570188;247;23148;-87
2022/08/04 09:14:07;;;;;;;9.05;4.37;;;55.90;28.30;54.50;100676;;;;582157;246;23112;-87
2022/08/04 09:16:47;;;;;;;5.72;4.10;;;55.50;28.90;55.50;100664;;;;583861;241;23074;-87
2022/08/04 09:19:21;;;;;;;3.83;3.53;;;57.10;28.50;56.60;100656;;;;588678;241;23106;-86
2022/08/04 09:21:59;;;;;;;5.87;3.87;;;57.80;27.90;57.20;100662;;;;573572;242;23095;-84
2022/08/04 09:24:42;;;;;;;8.00;3.60;;;58.10;27.50;57.20;100655;;;;589196;242;23085;-84
2022/08/04 09:27:10;;;;;;;3.60;3.40;;;58.00;27.60;56.80;100657;;;;592492;241;23090;-86
2022/08/04 09:30:05;;;;;;;5.68;3.50;;;58.10;27.40;56.70;100668;;;;572656;246;23150;-88
2022/08/04 09:32:40;;;;;;;4.37;3.65;;;58.00;27.60;55.20;100655;;;;573513;246;23110;-88
2022/08/04 09:35:32;;;;;;;6.18;3.53;;;56.00;27.90;53.90;100666;;;;583542;245;23101;-86
2022/08/04 09:38:27;;;;;;;8.25;3.97;;;56.00;27.90;53.30;100665;;;;590307;241;23063;-89
2022/08/04 09:40:54;;;;;;;8.70;3.67;;;55.00;28.50;53.10;100662;;;;573744;247;23127;-87
2022/08/04 09:43:37;;;;;;;3.45;3.25;;;54.40;28.90;53.70;100662;;;;590389;241;23070;-88
2022/08/04 09:46:09;;;;;;;7.10;3.35;;;55.30;28.90;54.40;100662;;;;578636;247;23115;-89
2022/08/04 09:49:13;;;;;;;4.87;3.50;;;55.20;28.80;54.80;100660;;;;578293;247;23084;-89
2022/08/04 09:51:53;;;;;;;9.80;3.90;;;55.80;27.90;54.50;100653;;;;574063;246;23107;-87
2022/08/04 09:54:49;;;;;;;5.90;3.50;;;55.90;28.20;55.20;100655;;;;572146;247;24193;-88
2022/08/04 09:57:38;;;;;;;14.52;4.40;;;56.40;27.80;54.20;100653;;;;569004;246;24104;-86
2022/08/04 10:00:12;;;;;;;3.92;3.37;;;56.00;27.90;53.70;100653;;;;572286;245;23146;-87
2022/08/04 10:02:40;;;;;;;4.82;3.80;;;55.40;28.40;53.90;100657;;;;584594;242;24134;-87
2022/08/04 10:05:12;;;;;;;11.05;3.40;;;55.50;28.20;53.50;100655;;;;581797;242;23099;-89
2022/08/04 10:08:07;;;;;;;8.48;3.70;;;55.20;28.20;53.10;100642;;;;576935;242;35270;-86
2022/08/04 10:10:47;;;;;;;3.85;3.47;;;54.80;28.40;53.00;100643;;;;588962;242;23128;-85
2022/08/04 10:14:02;;;;;;;6.68;3.33;;;54.80;28.40;53.00;100651;;;;570636;247;24172;-89
2022/08/04 10:16:57;;;;;;;8.57;4.10;;;54.60;28.30;52.80;100643;;;;578162;247;23088;-85
2022/08/04 10:19:31;;;;;;;8.43;3.10;;;54.50;28.70;53.40;100646;;;;571276;247;23186;-87
2022/08/04 10:22:20;;;;;;;4.07;2.80;;;54.80;29.10;53.30;100649;;;;584028;241;23077;-88
2022/08/04 10:25:16;;;;;;;3.35;3.15;;;55.00;28.10;52.50;100645;;;;583721;242;23221;-88
2022/08/04 10:28:05;;;;;;;9.52;3.60;;;54.30;28.40;51.50;100648;;;;573235;247;23139;-84
2022/08/04 10:30:39;;;;;;;5.43;3.33;;;53.30;28.90;50.10;100637;;;;584772;245;23078;-88
2022/08/04 10:33:32;;;;;;;7.03;3.28;;;52.20;29.30;49.60;100644;;;;578976;246;23204;-89
2022/08/04 10:36:05;;;;;;;11.20;3.97;;;51.30;29.80;49.20;100646;;;;577636;247;23149;-87
2022/08/04 10:38:58;;;;;;;8.75;3.67;;;50.70;30.00;48.90;100652;;;;572726;246;23104;-88
2022/08/04 10:41:52;;;;;;;8.90;3.33;;;49.30;30.90;47.60;100653;;;;594301;241;23071;-83
2022/08/04 10:44:45;;;;;;;5.35;3.03;;;47.90;31.80;46.10;100642;;;;581776;247;23173;-85
2022/08/04 10:47:16;;;;;;;9.95;3.72;;;47.80;31.80;45.20;100639;;;;575020;246;35245;-85
2022/08/04 10:49:47;;;;;;;12.13;3.95;;;46.70;33.10;43.90;100644;;;;595161;240;23078;-87
2022/08/04 10:52:35;;;;;;;10.93;3.50;;;45.30;34.00;43.10;100639;;;;582227;247;23131;-87
2022/08/04 10:55:18;;;;;;;4.47;3.20;;;44.00;35.50;41.90;100628;;;;584881;242;23074;-86
2022/08/04 10:57:52;;;;;;;15.00;4.10;;;42.50;36.20;40.90;100630;;;;574116;247;24154;-86
2022/08/04 11:00:23;;;;;;;52.28;6.12;;;41.30;37.70;39.80;100635;;;;574036;245;23134;-86
2022/08/04 11:03:08;;;;;;;14.40;3.75;;;40.30;38.60;38.50;100632;;;;582065;247;23121;-86
2022/08/04 11:05:48;;;;;;;5.55;3.67;;;39.10;39.70;37.40;100634;;;;577393;247;23111;-83
2022/08/04 11:08:30;;;;;;;17.73;4.05;;;37.90;41.00;36.80;100628;;;;572957;247;24149;-84
2022/08/04 11:11:11;;;;;;;33.92;5.75;;;36.60;42.70;36.40;100623;;;;593584;241;23128;-85
2022/08/04 11:13:45;;;;;;;5.68;3.70;;;36.50;42.60;36.30;100622;;;;584007;242;23067;-85
2022/08/04 11:16:44;;;;;;;17.50;4.55;;;36.30;43.40;36.20;100625;;;;580916;242;23424;-86
2022/08/04 11:19:31;;;;;;;8.10;4.00;;;36.00;44.50;35.80;100627;;;;573244;247;23093;-86
2022/08/04 11:22:05;;;;;;;7.78;4.05;;;35.90;44.40;35.30;100609;;;;572396;247;23104;-86
2022/08/04 11:24:53;;;;;;;4.50;3.50;;;35.60;44.60;35.00;100617;;;;583614;242;23093;-86
2022/08/04 11:27:46;;;;;;;9.40;3.42;;;34.90;45.60;34.50;100614;;;;571944;246;23108;-85
2022/08/04 11:30:18;;;;;;;4.43;4.03;;;34.80;45.10;34.30;100619;;;;557771;250;24116;-86
2022/08/04 11:32:45;;;;;;;7.25;4.07;;;34.60;45.80;34.00;100614;;;;561526;250;23129;-84
2022/08/04 11:35:24;;;;;;;4.37;3.97;;;34.40;46.10;33.70;100605;;;;561523;250;23117;-85
2022/08/04 11:37:55;;;;;;;6.45;3.90;;;33.90;48.00;33.70;100612;;;;561803;250;23138;-85
2022/08/04 11:40:24;;;;;;;6.70;4.60;;;33.80;47.90;33.50;100599;;;;568009;250;24153;-82
2022/08/04 11:42:54;;;;;;;10.45;4.37;;;33.80;47.90;33.50;100611;;;;588626;241;23082;-85
2022/08/04 11:45:31;;;;;;;6.90;3.92;;;33.80;48.40;33.40;100606;;;;581804;242;23109;-82
2022/08/04 11:48:01;;;;;;;7.28;4.80;;;33.70;48.60;33.30;100589;;;;573548;247;23093;-83
2022/08/04 11:50:48;;;;;;;4.35;3.95;;;33.60;48.70;33.10;100590;;;;581969;246;23093;-87
2022/08/04 11:53:15;;;;;;;9.23;4.45;;;33.60;48.40;33.10;100602;;;;584058;242;23066;-86
2022/08/04 11:55:40;;;;;;;7.85;4.03;;;33.40;49.60;33.10;100592;;;;583782;242;23083;-86
2022/08/04 11:58:11;;;;;;;18.52;5.70;;;33.40;49.30;32.90;100597;;;;585177;242;23087;-84
2022/08/04 12:00:37;;;;;;;6.12;4.28;;;33.30;49.20;32.60;100590;;;;585328;241;23083;-83